createdAt,value
2023-10-09T00:02:14.430Z,97377.13
2023-10-09T00:04:41.049Z,97377.88
2023-10-09T00:07:07.821Z,97369.06
2023-10-09T00:09:34.510Z,97372.13
2023-10-09T00:12:01.155Z,97374.44
2023-10-09T00:14:27.899Z,97366.75
2023-10-09T00:16:54.528Z,97374.03
2023-10-09T00:19:21.165Z,97374.81
2023-10-09T00:21:47.747Z,97382.06
2023-10-09T00:24:14.602Z,97382.84
2023-10-09T00:26:41.441Z,97379.31
2023-10-09T00:29:08.034Z,97380.88
2023-10-09T00:31:34.862Z,97373.19
2023-10-09T00:34:01.622Z,97381.25
2023-10-09T00:36:28.223Z,97375.44
2023-10-09T00:38:54.862Z,97380.81
2023-10-09T00:41:21.490Z,97377.34
2023-10-09T00:43:48.104Z,97379.59
2023-10-09T00:46:14.707Z,97379.25
2023-10-09T00:48:41.573Z,97366.63
2023-10-09T00:51:08.374Z,97365.06
2023-10-09T00:53:34.985Z,97365.84
2023-10-09T00:56:01.605Z,97359.72
2023-10-09T00:58:28.220Z,97359.72
2023-10-09T01:00:54.832Z,97358.94
2023-10-09T01:03:21.522Z,97359.34
2023-10-09T01:05:48.228Z,97352.44
2023-10-09T01:08:14.852Z,97350.53
2023-10-09T01:10:41.448Z,97351.75
2023-10-09T01:13:08.122Z,97351.31
2023-10-09T01:15:34.791Z,97345.94
2023-10-09T01:18:01.487Z,97347.06
2023-10-09T01:20:28.119Z,97343.25
2023-10-09T01:22:54.704Z,97341.38
2023-10-09T01:25:21.302Z,97343.19
2023-10-09T01:27:47.924Z,97341.28
2023-10-09T01:30:14.569Z,97330.19
2023-10-09T01:32:41.246Z,97332.47
2023-10-09T01:35:07.849Z,97331.31
2023-10-09T01:37:34.469Z,97335.13
2023-10-09T01:40:01.142Z,97339.38
2023-10-09T01:42:27.799Z,97338.97
2023-10-09T01:44:54.498Z,97349.63
2023-10-09T01:47:21.131Z,97345.38
2023-10-09T01:49:47.723Z,97339.28
2023-10-09T01:52:14.322Z,97343.84
2023-10-09T01:54:40.906Z,97336.22
2023-10-09T01:57:07.573Z,97338.13
2023-10-09T01:59:34.172Z,97334.66
2023-10-09T02:02:00.766Z,97336.59
2023-10-09T02:04:27.399Z,97335.03
2023-10-09T02:06:54.000Z,97342.69
2023-10-09T02:09:20.650Z,97334.66
2023-10-09T02:11:47.318Z,97335.09
2023-10-09T02:14:14.002Z,97334.31
2023-10-09T02:16:40.671Z,97334.66
2023-10-09T02:19:07.265Z,97335.44
2023-10-09T02:21:33.995Z,97338.91
2023-10-09T02:24:00.745Z,97340.03
2023-10-09T02:26:27.715Z,97337.34
2023-10-09T02:28:54.424Z,97338.84
2023-10-09T02:31:21.056Z,97336.16
2023-10-09T02:33:47.714Z,97340.03
2023-10-09T02:36:14.412Z,97345.75
2023-10-09T02:38:41.121Z,97340.41
2023-10-09T02:41:07.734Z,97336.16
2023-10-09T02:43:34.342Z,97340.41
2023-10-09T02:46:01.068Z,97337.28
2023-10-09T02:48:27.728Z,97336.06
2023-10-09T02:50:54.359Z,97332.28
2023-10-09T02:53:20.937Z,97337.28
2023-10-09T02:55:47.540Z,97333.03
2023-10-09T02:58:14.141Z,97338.84
2023-10-09T03:00:40.795Z,97339.19
2023-10-09T03:03:07.659Z,97339.53
2023-10-09T03:05:34.321Z,97340.69
2023-10-09T03:08:00.924Z,97336.44
2023-10-09T03:10:27.526Z,97340.25
2023-10-09T03:12:54.193Z,97339.47
2023-10-09T03:15:20.870Z,97345.19
2023-10-09T03:17:47.515Z,97339.81
2023-10-09T03:20:14.178Z,97339.06
2023-10-09T03:22:40.795Z,97339.06
2023-10-09T03:25:07.395Z,97332.91
2023-10-09T03:27:34.007Z,97344.06
2023-10-09T03:30:00.684Z,97347.88
2023-10-09T03:32:27.308Z,97341.03
2023-10-09T03:34:53.906Z,97339.13
2023-10-09T03:37:20.501Z,97344.50
2023-10-09T03:39:47.107Z,97347.19
2023-10-09T03:42:13.796Z,97347.19
2023-10-09T03:44:40.393Z,97339.91
2023-10-09T03:47:06.984Z,97339.13
2023-10-09T03:49:33.593Z,97329.09
2023-10-09T03:52:00.308Z,97333.69
2023-10-09T03:54:26.980Z,97331.78
2023-10-09T03:56:53.665Z,97331.44
2023-10-09T03:59:20.266Z,97334.47
2023-10-09T04:01:46.868Z,97336.75
2023-10-09T04:04:13.782Z,97336.75
2023-10-09T04:06:40.717Z,97342.50
2023-10-09T04:09:07.410Z,97336.75
2023-10-09T04:11:34.009Z,97335.97
2023-10-09T04:14:00.609Z,97335.97
2023-10-09T04:16:27.219Z,97344.34
2023-10-09T04:18:53.859Z,97342.09
2023-10-09T04:21:21.114Z,97342.47
2023-10-09T04:23:47.870Z,97337.44
2023-10-09T04:26:14.477Z,97333.56
2023-10-09T04:28:41.064Z,97341.25
2023-10-09T04:31:07.698Z,97335.88
2023-10-09T04:33:34.367Z,97330.53
2023-10-09T04:36:01.049Z,97324.38
2023-10-09T04:38:27.674Z,97333.19
2023-10-09T04:40:54.271Z,97334.34
2023-10-09T04:43:20.874Z,97335.47
2023-10-09T04:45:47.481Z,97332.84
2023-10-09T04:48:14.110Z,97328.63
2023-10-09T04:50:40.799Z,97332.44
2023-10-09T04:53:07.421Z,97333.19
2023-10-09T04:55:34.017Z,97327.06
2023-10-09T04:58:02.142Z,97325.16
2023-10-09T05:00:29.951Z,97325.16
2023-10-09T05:02:56.735Z,97322.06
2023-10-09T05:05:23.355Z,97326.31
2023-10-09T05:07:49.948Z,97321.31
2023-10-09T05:10:16.542Z,97327.00
2023-10-09T05:12:43.166Z,97328.13
2023-10-09T05:15:09.918Z,97322.41
2023-10-09T05:17:36.634Z,97318.97
2023-10-09T05:20:03.243Z,97321.66
2023-10-09T05:22:29.830Z,97323.19
2023-10-09T05:24:56.422Z,97328.91
2023-10-09T05:27:23.027Z,97323.53
2023-10-09T05:29:49.646Z,97322.78
2023-10-09T05:32:16.285Z,97336.53
2023-10-09T05:34:43.198Z,97335.78
2023-10-09T05:37:09.956Z,97337.31
2023-10-09T05:39:36.598Z,97336.19
2023-10-09T05:42:03.276Z,97340.75
2023-10-09T05:44:29.888Z,97338.50
2023-10-09T05:46:56.488Z,97346.91
2023-10-09T05:49:23.125Z,97349.91
2023-10-09T05:51:49.710Z,97348.88
2023-10-09T05:54:16.382Z,97355.03
2023-10-09T05:56:43.021Z,97361.16
2023-10-09T05:59:09.599Z,97361.84
2023-10-09T06:01:36.285Z,97363.31
2023-10-09T06:04:02.977Z,97361.81
2023-10-09T06:06:29.710Z,97355.28
2023-10-09T06:08:56.321Z,97361.44
2023-10-09T06:11:22.921Z,97354.53
2023-10-09T06:13:49.505Z,97355.63
2023-10-09T06:16:16.182Z,97356.44
2023-10-09T06:18:44.464Z,97359.91
2023-10-09T06:21:11.586Z,97352.69
2023-10-09T06:23:38.263Z,97357.34
2023-10-09T06:26:04.857Z,97362.63
2023-10-09T06:28:31.449Z,97358.41
2023-10-09T06:30:58.054Z,97359.97
2023-10-09T06:33:24.678Z,97358.06
2023-10-09T06:35:51.292Z,97364.19
2023-10-09T06:38:17.891Z,97365.56
2023-10-09T06:40:44.506Z,97357.03
2023-10-09T06:43:11.154Z,97357.38
2023-10-09T06:45:37.751Z,97365.78
2023-10-09T06:48:04.429Z,97363.88
2023-10-09T06:50:31.124Z,97361.97
2023-10-09T06:52:57.719Z,97367.34
2023-10-09T06:55:24.339Z,97372.25
2023-10-09T06:57:50.926Z,97375.72
2023-10-09T07:00:17.546Z,97371.91
2023-10-09T07:02:44.232Z,97378.81
2023-10-09T07:05:13.605Z,97379.53
2023-10-09T07:07:41.016Z,97384.47
2023-10-09T07:10:07.616Z,97383.34
2023-10-09T07:12:34.314Z,97381.72
2023-10-09T07:15:01.110Z,97379.06
2023-10-09T07:17:27.793Z,97387.78
2023-10-09T07:19:54.528Z,97391.59
2023-10-09T07:22:21.136Z,97390.81
2023-10-09T07:24:47.753Z,97392.00
2023-10-09T07:27:14.415Z,97398.50
2023-10-09T07:29:41.042Z,97388.56
2023-10-09T07:32:07.624Z,97401.63
2023-10-09T07:34:34.237Z,97397.81
2023-10-09T07:37:00.848Z,97391.31
2023-10-09T07:39:27.512Z,97398.56
2023-10-09T07:41:54.150Z,97396.31
2023-10-09T07:44:20.811Z,97389.84
2023-10-09T07:46:47.457Z,97395.63
2023-10-09T07:49:14.062Z,97400.56
2023-10-09T07:51:40.709Z,97397.44
2023-10-09T07:54:07.398Z,97399.00
2023-10-09T07:56:34.034Z,97411.97
2023-10-09T07:59:00.652Z,97397.44
2023-10-09T08:01:27.310Z,97405.06
2023-10-09T08:03:53.945Z,97406.97
2023-10-09T08:06:20.625Z,97403.50
2023-10-09T08:08:47.245Z,97401.97
2023-10-09T08:11:13.858Z,97393.13
2023-10-09T08:13:40.475Z,97401.97
2023-10-09T08:16:07.174Z,97399.63
2023-10-09T08:18:33.845Z,97404.13
2023-10-09T08:21:00.505Z,97401.47
2023-10-09T08:23:27.098Z,97394.97
2023-10-09T08:25:53.723Z,97398.06
2023-10-09T08:28:20.314Z,97400.34
2023-10-09T08:30:46.950Z,97400.41
2023-10-09T08:35:43.222Z,97402.91
2023-10-09T08:38:09.969Z,97402.59
2023-10-09T08:40:36.661Z,97396.44
2023-10-09T08:43:03.273Z,97403.38
2023-10-09T08:45:29.946Z,97407.59
2023-10-09T08:47:56.560Z,97401.13
2023-10-09T08:50:23.306Z,97403.41
2023-10-09T08:52:50.393Z,97410.00
2023-10-09T08:55:17.014Z,97412.34
2023-10-09T08:57:43.638Z,97405.47
2023-10-09T09:00:10.261Z,97404.69
2023-10-09T09:02:36.929Z,97405.84
2023-10-09T09:05:03.668Z,97405.47
2023-10-09T09:07:30.568Z,97402.47
2023-10-09T09:09:57.285Z,97398.66
2023-10-09T09:12:23.897Z,97400.91
2023-10-09T09:14:50.489Z,97403.50
2023-10-09T09:17:17.171Z,97403.84
2023-10-09T09:19:43.924Z,97398.84
2023-10-09T09:22:10.576Z,97396.88
2023-10-09T09:24:37.184Z,97397.22
2023-10-09T09:27:03.789Z,97397.56
2023-10-09T09:29:30.408Z,97394.38
2023-10-09T09:31:57.066Z,97397.84
2023-10-09T09:34:23.743Z,97389.91
2023-10-09T09:36:50.418Z,97388.13
2023-10-09T09:39:17.018Z,97386.31
2023-10-09T09:41:43.635Z,97387.50
2023-10-09T09:44:10.218Z,97383.69
2023-10-09T09:46:36.932Z,97388.72
2023-10-09T09:49:03.550Z,97387.66
2023-10-09T09:51:31.530Z,97392.63
2023-10-09T09:53:58.166Z,97391.97
2023-10-09T09:56:24.761Z,97388.56
2023-10-09T09:58:51.513Z,97383.09
2023-10-09T10:01:18.313Z,97382.53
2023-10-09T10:03:45.138Z,97385.06
2023-10-09T10:06:11.823Z,97380.81
2023-10-09T10:08:38.431Z,97378.75
2023-10-09T10:11:05.061Z,97380.50
2023-10-09T10:13:31.701Z,97374.25
2023-10-09T10:15:58.651Z,97374.06
2023-10-09T10:18:25.359Z,97374.97
2023-10-09T10:20:52.009Z,97381.16
2023-10-09T10:23:18.630Z,97379.31
2023-10-09T10:25:45.314Z,97373.22
2023-10-09T10:28:11.925Z,97369.38
2023-10-09T10:30:38.557Z,97372.53
2023-10-09T10:33:05.233Z,97366.47
2023-10-09T10:35:32.075Z,97352.59
2023-10-09T10:37:58.792Z,97353.06
2023-10-09T10:40:25.401Z,97354.63
2023-10-09T10:42:52.005Z,97358.13
2023-10-09T10:45:18.625Z,97343.97
2023-10-09T10:47:45.259Z,97348.22
2023-10-09T10:50:11.959Z,97341.34
2023-10-09T10:52:38.676Z,97339.44
2023-10-09T10:55:05.347Z,97343.25
2023-10-09T10:57:31.979Z,97340.19
2023-10-09T10:59:58.600Z,97335.59
2023-10-09T11:02:25.396Z,97331.75
2023-10-09T11:04:52.263Z,97330.56
2023-10-09T11:07:18.951Z,97323.63
2023-10-09T11:09:52.957Z,97323.22
2023-10-09T11:12:20.026Z,97324.28
2023-10-09T11:14:46.653Z,97313.31
2023-10-09T11:17:13.273Z,97313.97
2023-10-09T11:19:39.886Z,97308.56
2023-10-09T11:22:06.494Z,97319.19
2023-10-09T11:24:33.095Z,97311.78
2023-10-09T11:26:59.712Z,97308.38
2023-10-09T11:29:26.317Z,97313.34
2023-10-09T11:31:52.931Z,97305.38
2023-10-09T11:34:19.549Z,97302.25
2023-10-09T11:36:46.167Z,97298.88
2023-10-09T11:39:12.778Z,97297.13
2023-10-09T11:41:39.395Z,97295.59
2023-10-09T11:44:06.034Z,97290.97
2023-10-09T11:46:32.720Z,97285.91
2023-10-09T11:48:59.400Z,97283.53
2023-10-09T11:51:26.007Z,97281.16
2023-10-09T11:53:52.627Z,97285.72
2023-10-09T11:56:19.349Z,97279.59
2023-10-09T11:58:45.992Z,97278.06
2023-10-09T12:01:13.608Z,97268.84
2023-10-09T12:03:40.382Z,97267.69
2023-10-09T12:06:07.396Z,97270.38
2023-10-09T12:08:34.072Z,97261.84
2023-10-09T12:11:00.693Z,97264.19
2023-10-09T12:13:27.302Z,97265.34
2023-10-09T12:15:53.899Z,97255.34
2023-10-09T12:18:20.549Z,97250.75
2023-10-09T12:20:47.188Z,97247.31
2023-10-09T12:23:13.792Z,97244.53
2023-10-09T12:25:40.424Z,97233.09
2023-10-09T12:28:07.022Z,97239.25
2023-10-09T12:30:33.657Z,97230.78
2023-10-09T12:33:00.351Z,97230.78
2023-10-09T12:35:27.071Z,97229.97
2023-10-09T12:37:53.692Z,97228.41
2023-10-09T12:40:20.318Z,97228.81
2023-10-09T12:42:46.924Z,97224.56
2023-10-09T12:45:13.585Z,97217.28
2023-10-09T12:47:40.284Z,97221.09
2023-10-09T12:50:07.036Z,97218.81
2023-10-09T12:52:33.710Z,97207.34
2023-10-09T12:55:00.377Z,97205.03
2023-10-09T12:57:27.003Z,97206.56
2023-10-09T12:59:53.596Z,97203.50
2023-10-09T13:02:20.217Z,97201.25
2023-10-09T13:04:46.849Z,97206.63
2023-10-09T13:07:13.541Z,97199.34
2023-10-09T13:09:40.173Z,97197.09
2023-10-09T13:12:06.819Z,97199.34
2023-10-09T13:14:33.437Z,97195.44
2023-10-09T13:17:03.018Z,97191.31
2023-10-09T13:19:29.659Z,97189.72
2023-10-09T13:21:56.253Z,97187.84
2023-10-09T13:24:22.856Z,97185.59
2023-10-09T13:26:49.481Z,97177.53
2023-10-09T13:29:18.426Z,97177.88
2023-10-09T13:31:45.568Z,97178.22
2023-10-09T13:34:12.223Z,97173.00
2023-10-09T13:36:38.890Z,97170.75
2023-10-09T13:39:05.517Z,97168.16
2023-10-09T13:41:32.125Z,97162.00
2023-10-09T13:43:58.765Z,97164.59
2023-10-09T13:46:25.515Z,97160.38
2023-10-09T13:48:52.263Z,97159.59
2023-10-09T13:51:18.877Z,97148.47
2023-10-09T13:53:45.499Z,97142.72
2023-10-09T13:56:12.158Z,97148.47
2023-10-09T13:58:38.809Z,97148.09
2023-10-09T14:01:05.478Z,97146.59
2023-10-09T14:03:32.194Z,97137.00
2023-10-09T14:05:58.945Z,97138.13
2023-10-09T14:08:25.581Z,97140.81
2023-10-09T14:10:52.245Z,97129.72
2023-10-09T14:13:18.875Z,97124.41
2023-10-09T14:15:45.515Z,97129.78
2023-10-09T14:18:12.165Z,97127.50
2023-10-09T14:20:38.790Z,97120.56
2023-10-09T14:23:05.400Z,97116.75
2023-10-09T14:25:32.042Z,97124.81
2023-10-09T14:27:58.645Z,97121.00
2023-10-09T14:30:25.228Z,97119.78
2023-10-09T14:32:51.876Z,97111.00
2023-10-09T14:35:18.531Z,97115.63
2023-10-09T14:37:45.162Z,97109.16
2023-10-09T14:40:11.846Z,97111.34
2023-10-09T14:42:38.438Z,97109.00
2023-10-09T14:45:05.061Z,97102.84
2023-10-09T14:47:31.777Z,97102.94
2023-10-09T14:49:58.456Z,97100.63
2023-10-09T14:52:25.074Z,97100.66
2023-10-09T14:54:51.889Z,97092.56
2023-10-09T14:57:18.561Z,97091.81
2023-10-09T14:59:45.208Z,97091.09
2023-10-09T15:02:11.818Z,97091.03
2023-10-09T15:04:38.490Z,97087.53
2023-10-09T15:07:05.089Z,97090.25
2023-10-09T15:09:31.691Z,97089.03
2023-10-09T15:11:58.287Z,97083.66
2023-10-09T15:14:24.898Z,97089.88
2023-10-09T15:16:51.521Z,97080.63
2023-10-09T15:19:18.137Z,97085.69
2023-10-09T15:21:44.744Z,97087.97
2023-10-09T15:24:11.395Z,97090.00
2023-10-09T15:26:38.127Z,97090.03
2023-10-09T15:29:04.982Z,97086.97
2023-10-09T15:31:31.664Z,97082.72
2023-10-09T15:33:58.301Z,97086.53
2023-10-09T15:36:24.942Z,97088.03
2023-10-09T15:38:51.553Z,97088.88
2023-10-09T15:41:18.188Z,97086.19
2023-10-09T15:43:44.829Z,97081.97
2023-10-09T15:46:11.461Z,97081.19
2023-10-09T15:48:38.141Z,97080.03
2023-10-09T15:51:04.747Z,97081.53
2023-10-09T15:53:31.434Z,97079.97
2023-10-09T15:55:58.157Z,97079.63
2023-10-09T15:58:24.761Z,97078.03
2023-10-09T16:00:51.365Z,97085.31
2023-10-09T16:03:18.025Z,97076.81
2023-10-09T16:05:44.682Z,97085.78
2023-10-09T16:08:11.354Z,97083.59
2023-10-09T16:10:38.097Z,97081.63
2023-10-09T16:13:04.818Z,97081.97
2023-10-09T16:15:31.411Z,97074.69
2023-10-09T16:17:58.078Z,97082.03
2023-10-09T16:20:24.730Z,97082.06
2023-10-09T16:22:51.382Z,97094.34
2023-10-09T16:25:18.020Z,97087.84
2023-10-09T16:27:44.614Z,97090.16
2023-10-09T16:30:11.204Z,97081.34
2023-10-09T16:32:37.911Z,97086.75
2023-10-09T16:35:04.600Z,97085.97
2023-10-09T16:37:31.239Z,97086.38
2023-10-09T16:39:57.846Z,97087.59
2023-10-09T16:42:24.472Z,97089.13
2023-10-09T16:44:51.084Z,97090.28
2023-10-09T16:47:17.720Z,97086.13
2023-10-09T16:49:44.387Z,97093.88
2023-10-09T16:52:10.987Z,97098.13
2023-10-09T16:54:37.567Z,97089.75
2023-10-09T16:57:04.169Z,97091.66
2023-10-09T16:59:30.751Z,97094.38
2023-10-09T17:01:57.397Z,97092.50
2023-10-09T17:04:24.241Z,97090.97
2023-10-09T17:06:51.156Z,97096.34
2023-10-09T17:09:17.764Z,97092.50
2023-10-09T17:11:44.360Z,97094.78
2023-10-09T17:14:10.980Z,97098.25
2023-10-09T17:16:37.590Z,97105.13
2023-10-09T17:19:04.174Z,97097.47
2023-10-09T17:21:30.804Z,97107.09
2023-10-09T17:23:57.400Z,97100.94
2023-10-09T17:26:24.080Z,97103.94
2023-10-09T17:28:50.752Z,97108.41
2023-10-09T17:31:17.407Z,97115.28
2023-10-09T17:33:44.041Z,97105.66
2023-10-09T17:36:10.639Z,97103.28
2023-10-09T17:38:37.253Z,97109.03
2023-10-09T17:41:03.935Z,97111.72
2023-10-09T17:43:30.577Z,97115.16
2023-10-09T17:45:57.181Z,97111.34
2023-10-09T17:48:23.908Z,97112.47
2023-10-09T17:50:50.575Z,97113.19
2023-10-09T17:53:17.318Z,97110.56
2023-10-09T17:55:44.078Z,97117.94
2023-10-09T17:58:10.695Z,97125.09
2023-10-09T18:00:37.340Z,97124.91
2023-10-09T18:03:04.070Z,97123.53
2023-10-09T18:05:30.780Z,97133.91
2023-10-09T18:07:57.443Z,97131.28
2023-10-09T18:10:24.076Z,97133.97
2023-10-09T18:12:50.682Z,97128.59
2023-10-09T18:15:17.299Z,97131.28
2023-10-09T18:17:44.062Z,97132.81
2023-10-09T18:20:10.818Z,97133.19
2023-10-09T18:22:37.431Z,97130.13
2023-10-09T18:25:04.010Z,97142.00
2023-10-09T18:27:30.643Z,97134.72
2023-10-09T18:29:57.256Z,97143.56
2023-10-09T18:32:23.919Z,97135.09
2023-10-09T18:34:50.626Z,97148.53
2023-10-09T18:37:17.247Z,97148.00
2023-10-09T18:39:43.863Z,97144.53
2023-10-09T18:42:10.509Z,97145.31
2023-10-09T18:44:37.245Z,97146.44
2023-10-09T18:47:03.960Z,97143.03
2023-10-09T18:49:30.647Z,97141.88
2023-10-09T18:51:57.319Z,97140.34
2023-10-09T18:54:23.946Z,97140.69
2023-10-09T18:56:50.559Z,97139.50
2023-10-09T18:59:17.369Z,97148.28
2023-10-09T19:01:44.198Z,97145.66
2023-10-09T19:04:10.839Z,97149.47
2023-10-09T19:06:37.594Z,97148.69
2023-10-09T19:09:04.204Z,97142.19
2023-10-09T19:11:30.809Z,97148.78
2023-10-09T19:13:57.450Z,97143.41
2023-10-09T19:16:24.091Z,97147.22
2023-10-09T19:18:50.742Z,97146.84
2023-10-09T19:21:17.362Z,97150.66
2023-10-09T19:23:43.960Z,97144.53
2023-10-09T19:26:10.610Z,97143.34
2023-10-09T19:28:37.231Z,97146.81
2023-10-09T19:31:03.843Z,97147.56
2023-10-09T19:33:30.483Z,97146.81
2023-10-09T19:35:57.082Z,97147.19
2023-10-09T19:38:23.784Z,97149.88
2023-10-09T19:40:50.448Z,97157.97
2023-10-09T19:43:17.049Z,97156.78
2023-10-09T19:45:43.658Z,97158.66
2023-10-09T19:48:10.320Z,97157.13
2023-10-09T19:50:40.082Z,97154.03
2023-10-09T19:53:06.743Z,97162.88
2023-10-09T19:55:33.367Z,97160.56
2023-10-09T19:57:59.958Z,97152.84
2023-10-09T20:00:26.584Z,97147.47
2023-10-09T20:02:53.253Z,97154.75
2023-10-09T20:05:19.969Z,97147.06
2023-10-09T20:07:46.635Z,97160.88
2023-10-09T20:10:13.256Z,97160.88
2023-10-09T20:12:39.866Z,97165.50
2023-10-09T20:15:06.466Z,97166.97
2023-10-09T20:17:33.144Z,97167.72
2023-10-09T20:19:59.843Z,97169.22
2023-10-09T20:22:26.481Z,97171.13
2023-10-09T20:24:53.068Z,97170.69
2023-10-09T20:27:19.673Z,97175.28
2023-10-09T20:29:46.291Z,97175.59
2023-10-09T20:32:13.017Z,97174.44
2023-10-09T20:34:39.692Z,97179.75
2023-10-09T20:37:06.296Z,97186.25
2023-10-09T20:39:32.884Z,97180.47
2023-10-09T20:41:59.692Z,97184.31
2023-10-09T20:44:26.359Z,97184.31
2023-10-09T20:46:52.977Z,97180.44
2023-10-09T20:49:19.575Z,97186.97
2023-10-09T20:51:54.950Z,97186.97
2023-10-09T20:54:23.607Z,97188.44
2023-10-09T20:56:50.206Z,97185.41
2023-10-09T20:59:16.917Z,97183.19
2023-10-09T21:01:43.676Z,97185.88
2023-10-09T21:04:10.434Z,97190.91
2023-10-09T21:06:37.063Z,97192.44
2023-10-09T21:09:03.669Z,97187.03
2023-10-09T21:11:30.272Z,97196.19
2023-10-09T21:13:56.888Z,97200.38
2023-10-09T21:16:23.560Z,97211.91
2023-10-09T21:18:50.201Z,97198.06
2023-10-09T21:21:16.975Z,97205.69
2023-10-09T21:23:43.676Z,97209.56
2023-10-09T21:26:10.354Z,97218.00
2023-10-09T21:28:36.977Z,97221.41
2023-10-09T21:31:03.577Z,97213.66
2023-10-09T21:33:30.224Z,97212.47
2023-10-09T21:35:56.903Z,97204.06
2023-10-09T21:38:23.519Z,97200.63
2023-10-09T21:40:55.054Z,97201.78
2023-10-09T21:43:21.642Z,97211.75
2023-10-09T21:45:48.250Z,97215.94
2023-10-09T21:48:14.868Z,97216.72
2023-10-09T21:50:41.492Z,97214.41
2023-10-09T21:53:08.153Z,97224.78
2023-10-09T21:55:34.788Z,97225.13
2023-10-09T21:58:01.429Z,97232.06
2023-10-09T22:00:28.043Z,97226.34
2023-10-09T22:02:54.734Z,97227.47
2023-10-09T22:05:21.399Z,97220.53
2023-10-09T22:07:48.056Z,97205.91
2023-10-09T22:10:14.672Z,97191.72
2023-10-09T22:12:41.260Z,97177.56
2023-10-09T22:15:07.873Z,97177.13
2023-10-09T22:17:34.621Z,97166.38
2023-10-09T22:20:01.309Z,97181.72
2023-10-09T22:22:27.932Z,97194.00
2023-10-09T22:24:54.539Z,97213.91
2023-10-09T22:27:21.133Z,97221.56
2023-10-09T22:29:47.725Z,97213.91
2023-10-09T22:32:14.358Z,97214.72
2023-10-09T22:34:41.046Z,97216.63
2023-10-09T22:37:07.644Z,97214.28
2023-10-09T22:39:34.474Z,97202.00
2023-10-09T22:42:01.189Z,97200.41
2023-10-09T22:44:27.857Z,97200.47
2023-10-09T22:46:54.544Z,97205.44
2023-10-09T22:49:21.148Z,97203.91
2023-10-09T22:51:47.737Z,97209.28
2023-10-09T22:54:14.340Z,97213.13
2023-10-09T22:56:40.930Z,97219.63
2023-10-09T22:59:07.543Z,97215.38
2023-10-09T23:01:34.192Z,97213.06
2023-10-09T23:04:00.866Z,97211.50
2023-10-09T23:06:27.584Z,97205.00
2023-10-09T23:08:54.183Z,97212.66
2023-10-09T23:11:20.806Z,97208.44
2023-10-09T23:13:47.434Z,97201.16
2023-10-09T23:16:14.038Z,97200.41
2023-10-09T23:18:40.714Z,97196.94
2023-10-09T23:21:07.321Z,97194.66
2023-10-09T23:23:33.905Z,97196.94
2023-10-09T23:26:00.522Z,97193.09
2023-10-09T23:28:27.136Z,97196.88
2023-10-09T23:30:53.889Z,97198.78
2023-10-09T23:33:20.584Z,97197.63
2023-10-09T23:35:47.168Z,97196.09
2023-10-09T23:38:13.809Z,97207.97
2023-10-09T23:40:40.412Z,97202.19
2023-10-09T23:43:07.062Z,97200.28
2023-10-09T23:45:33.704Z,97200.72
2023-10-09T23:48:00.354Z,97201.09
2023-10-09T23:50:27.112Z,97211.81
2023-10-09T23:52:53.769Z,97209.22
2023-10-09T23:55:20.371Z,97218.44
2023-10-09T23:57:46.984Z,97213.06
